Time;durP1;ratioP1;P1;durP2;ratioP2;P2;SDS_P1;SDS_P2;PMS_P1;PMS_P2;Temp;Humidity;BMP_temperature;BMP_pressure;BME280_temperature;BME280_humidity;BME280_pressure;Samples;Min_cycle;Max_cycle;Signal;HPM_P1;HPM_P2
2023/12/28 00:00:07;;;;;;;1.27;0.60;;;;;;;21.11;31.86;99946.88;4506650;28;20552;-50
2023/12/28 00:02:17;;;;;;;0.70;0.60;;;;;;;21.11;31.82;99955.50;4506690;28;20118;-50
2023/12/28 00:04:28;;;;;;;1.00;0.50;;;;;;;21.11;32.10;99962.06;4507048;28;20121;-49
2023/12/28 00:06:38;;;;;;;0.57;0.50;;;;;;;21.11;32.46;99953.47;4506789;28;20037;-50
2023/12/28 00:08:48;;;;;;;0.63;0.50;;;;;;;21.10;32.31;99954.69;4506375;28;20029;-49
2023/12/28 00:10:59;;;;;;;0.70;0.60;;;;;;;21.10;32.30;99963.28;4506703;28;20042;-52
2023/12/28 00:13:09;;;;;;;0.65;0.60;;;;;;;21.11;32.41;99964.94;4506782;28;20045;-49
2023/12/28 00:15:20;;;;;;;0.60;0.57;;;;;;;21.10;32.47;99974.78;4506811;28;20841;-49
2023/12/28 00:17:30;;;;;;;1.00;0.70;;;;;;;21.10;32.32;99979.66;4506379;28;20125;-49
2023/12/28 00:19:40;;;;;;;1.48;0.70;;;;;;;21.10;32.75;99983.38;4504966;28;20506;-51
2023/12/28 00:21:51;;;;;;;0.60;0.50;;;;;;;21.10;32.76;99980.50;4504712;28;20061;-49
2023/12/28 00:24:01;;;;;;;0.70;0.70;;;;;;;21.09;32.84;99978.81;4506349;28;20034;-50
2023/12/28 00:26:12;;;;;;;0.60;0.60;;;;;;;21.10;32.85;99986.25;4506457;28;20116;-49
2023/12/28 00:28:24;;;;;;;0.52;0.50;;;;;;;21.10;33.11;99997.72;4504284;28;20027;-50
2023/12/28 00:30:35;;;;;;;0.65;0.60;;;;;;;21.09;33.43;99996.03;4504826;28;20038;-48
2023/12/28 00:32:45;;;;;;;0.60;0.60;;;;;;;21.09;33.79;99990.31;4504805;28;20080;-49
2023/12/28 00:34:56;;;;;;;0.82;0.52;;;;;;;21.10;33.94;99996.88;4520902;28;20049;-49
2023/12/28 00:37:06;;;;;;;1.15;0.60;;;;;;;21.10;33.70;99986.25;4506339;28;20029;-49
2023/12/28 00:39:17;;;;;;;1.00;0.60;;;;;;;21.10;33.87;99991.97;4504728;28;20038;-49
2023/12/28 00:41:27;;;;;;;0.82;0.60;;;;;;;21.10;33.82;99997.72;4505864;28;20062;-49
2023/12/28 00:43:37;;;;;;;0.75;0.50;;;;;;;21.10;34.30;99991.97;4504025;28;20617;-49
2023/12/28 00:45:48;;;;;;;0.70;0.52;;;;;;;21.09;34.48;100001.78;4504309;28;20057;-50
2023/12/28 00:47:58;;;;;;;0.65;0.52;;;;;;;21.09;34.29;100019.00;4494075;28;20034;-49
2023/12/28 00:50:14;;;;;;;0.85;0.60;;;;;;;21.09;34.34;100007.53;4505766;28;20038;-48
2023/12/28 00:52:25;;;;;;;0.70;0.68;;;;;;;21.08;34.53;100000.16;4488551;28;20030;-50
2023/12/28 00:54:39;;;;;;;0.90;0.60;;;;;;;21.09;34.93;100016.13;4499632;28;20045;-48
2023/12/28 00:56:49;;;;;;;0.80;0.60;;;;;;;21.09;35.01;100019.00;4505303;28;20077;-49
2023/12/28 00:59:01;;;;;;;0.85;0.70;;;;;;;21.07;34.78;100021.44;4505711;28;20509;-48
2023/12/28 01:01:12;;;;;;;0.60;0.60;;;;;;;21.08;35.03;100023.09;4505746;28;20083;-48
2023/12/28 01:03:24;;;;;;;0.40;0.40;;;;;;;21.08;35.13;100013.66;4520850;28;20593;-48
2023/12/28 01:05:34;;;;;;;0.60;0.57;;;;;;;21.08;34.81;100019.38;4504605;28;20042;-51
2023/12/28 01:07:44;;;;;;;0.55;0.55;;;;;;;21.07;35.41;100009.97;4504051;28;20152;-49
2023/12/28 01:09:55;;;;;;;1.10;0.77;;;;;;;21.08;35.37;100022.25;4505751;28;20150;-49
2023/12/28 01:12:06;;;;;;;0.90;0.70;;;;;;;21.07;35.42;100026.34;4497262;28;20422;-48
2023/12/28 01:14:17;;;;;;;0.60;0.60;;;;;;;21.07;35.42;100020.63;4507634;28;21313;-49
2023/12/28 01:16:28;;;;;;;0.60;0.60;;;;;;;21.07;35.21;100023.47;4507230;28;20165;-49
2023/12/28 01:18:39;;;;;;;0.68;0.55;;;;;;;21.05;35.25;100023.88;4508723;28;20081;-48
2023/12/28 01:20:50;;;;;;;0.65;0.60;;;;;;;21.08;35.51;100028.00;4509100;28;20033;-49
2023/12/28 01:23:01;;;;;;;0.68;0.50;;;;;;;21.08;35.49;100033.75;4508383;28;22496;-49
2023/12/28 01:25:11;;;;;;;0.63;0.50;;;;;;;21.06;35.38;100042.72;4507399;28;20034;-51
2023/12/28 01:27:21;;;;;;;0.60;0.60;;;;;;;21.07;35.44;100041.53;4508961;28;20371;-49
2023/12/28 01:29:32;;;;;;;0.63;0.60;;;;;;;21.07;35.34;100043.56;4507030;28;21722;-49
2023/12/28 01:31:43;;;;;;;0.90;0.70;;;;;;;21.06;35.40;100047.66;4490839;28;20076;-49
2023/12/28 01:33:54;;;;;;;0.95;0.60;;;;;;;21.06;35.60;100045.59;4507392;28;20189;-49
2023/12/28 01:36:25;;;;;;;0.75;0.55;;;;;;;21.07;35.45;100055.88;4508565;28;21527;-49
2023/12/28 01:38:36;;;;;;;0.80;0.70;;;;;;;21.07;35.24;100050.16;4508615;28;20100;-49
2023/12/28 01:40:47;;;;;;;0.82;0.77;;;;;;;21.07;35.53;100043.56;4506768;28;21649;-49
2023/12/28 01:42:59;;;;;;;0.80;0.63;;;;;;;21.06;35.64;100059.94;4507032;28;20034;-50
2023/12/28 01:45:10;;;;;;;1.00;0.60;;;;;;;21.06;35.25;100051.34;4508563;28;20491;-49
2023/12/28 01:47:20;;;;;;;0.70;0.60;;;;;;;21.04;35.66;100050.88;4507030;28;20021;-49
2023/12/28 01:49:32;;;;;;;0.60;0.60;;;;;;;21.06;35.41;100064.88;4508747;28;20038;-49
2023/12/28 01:51:44;;;;;;;0.73;0.60;;;;;;;21.06;35.47;100071.44;4504397;28;20857;-49
2023/12/28 01:53:55;;;;;;;1.20;0.60;;;;;;;21.06;35.04;100077.16;4508563;28;20612;-48
2023/12/28 01:56:06;;;;;;;0.60;0.60;;;;;;;21.06;35.55;100076.34;4508381;28;22877;-49
2023/12/28 01:58:17;;;;;;;0.70;0.50;;;;;;;21.04;35.41;100062.38;4523084;28;20065;-50
2023/12/28 02:00:29;;;;;;;0.75;0.60;;;;;;;21.05;35.61;100075.53;4523192;28;20041;-49
2023/12/28 02:02:41;;;;;;;0.50;0.45;;;;;;;21.06;35.50;100065.69;4508236;28;20037;-49
2023/12/28 02:04:52;;;;;;;0.90;0.70;;;;;;;21.05;35.22;100069.78;4507191;28;20976;-50
2023/12/28 02:07:02;;;;;;;0.50;0.50;;;;;;;21.05;35.60;100074.69;4522953;28;20091;-49
2023/12/28 02:09:13;;;;;;;0.70;0.60;;;;;;;21.04;35.42;100056.63;4506930;28;20053;-49
2023/12/28 02:11:23;;;;;;;0.70;0.68;;;;;;;21.05;35.16;100068.94;4506688;28;20509;-49
2023/12/28 02:13:34;;;;;;;0.73;0.60;;;;;;;21.05;35.63;100061.16;4508411;28;20044;-49
2023/12/28 02:15:47;;;;;;;0.50;0.50;;;;;;;21.03;35.32;100059.88;4522689;28;20042;-51
2023/12/28 02:18:19;;;;;;;0.80;0.68;;;;;;;21.05;35.46;100061.16;4504077;28;20033;-49
2023/12/28 02:20:31;;;;;;;0.60;0.60;;;;;;;21.05;35.65;100057.47;4508043;28;20040;-49
2023/12/28 02:22:42;;;;;;;0.60;0.60;;;;;;;21.04;35.30;100062.38;4522030;28;20920;-49
2023/12/28 02:24:59;;;;;;;0.50;0.50;;;;;;;21.04;35.35;100053.75;4506198;28;20034;-48
2023/12/28 02:27:09;;;;;;;1.23;0.80;;;;;;;21.05;35.26;100077.56;4522696;28;20087;-49
2023/12/28 02:29:20;;;;;;;0.88;0.57;;;;;;;21.05;35.22;100080.41;4506655;28;20045;-49
2023/12/28 02:31:42;;;;;;;0.50;0.50;;;;;;;21.05;35.27;100063.19;4506478;28;20038;-49
2023/12/28 02:34:06;;;;;;;0.82;0.70;;;;;;;21.04;35.37;100068.09;4522862;28;20140;-50
2023/12/28 02:36:21;;;;;;;1.10;0.70;;;;;;;21.04;35.34;100075.91;4497325;28;20038;-49
2023/12/28 02:38:36;;;;;;;0.60;0.60;;;;;;;21.04;35.48;100068.09;4522694;28;20658;-49
2023/12/28 02:40:47;;;;;;;1.13;0.73;;;;;;;21.04;35.18;100078.78;4507890;28;20566;-49
2023/12/28 02:42:57;;;;;;;0.63;0.60;;;;;;;21.04;35.41;100070.97;4506252;28;20109;-49
2023/12/28 02:45:09;;;;;;;0.88;0.60;;;;;;;21.04;35.62;100075.91;4506539;28;20041;-49
2023/12/28 02:47:19;;;;;;;0.75;0.70;;;;;;;21.04;35.66;100076.72;4496425;28;20064;-50
2023/12/28 02:49:29;;;;;;;0.80;0.63;;;;;;;21.04;35.62;100091.06;4506204;28;20455;-49
2023/12/28 02:51:41;;;;;;;1.08;0.80;;;;;;;21.03;35.72;100075.06;4506479;28;20026;-48
2023/12/28 02:53:52;;;;;;;0.88;0.70;;;;;;;21.04;35.32;100079.56;4507647;28;20132;-50
2023/12/28 02:56:02;;;;;;;0.65;0.60;;;;;;;21.04;35.88;100081.63;4506260;28;20910;-51
2023/12/28 02:58:13;;;;;;;0.60;0.60;;;;;;;21.03;35.64;100080.81;4506062;28;20632;-49
2023/12/28 03:00:23;;;;;;;0.75;0.60;;;;;;;21.03;35.72;100083.66;4522259;28;20041;-49
2023/12/28 03:02:35;;;;;;;0.75;0.70;;;;;;;21.04;35.79;100075.91;4507649;28;20113;-49
2023/12/28 03:04:47;;;;;;;0.75;0.70;;;;;;;21.03;35.99;100092.28;4507588;28;20629;-49
2023/12/28 03:06:57;;;;;;;0.90;0.70;;;;;;;21.03;35.97;100074.22;4505449;28;20038;-49
2023/12/28 03:09:08;;;;;;;1.13;0.80;;;;;;;21.03;35.65;100083.66;4489204;28;20034;-49
2023/12/28 03:11:20;;;;;;;0.70;0.60;;;;;;;21.03;36.09;100080.81;4505902;28;20038;-49
2023/12/28 03:13:32;;;;;;;0.75;0.60;;;;;;;21.03;35.56;100088.56;4507254;28;20410;-49
2023/12/28 03:15:42;;;;;;;0.70;0.70;;;;;;;21.02;35.49;100093.50;4505868;28;20042;-49
2023/12/28 03:17:52;;;;;;;0.70;0.70;;;;;;;21.03;35.99;100089.41;4506760;28;21412;-49
2023/12/28 03:20:03;;;;;;;1.17;0.70;;;;;;;21.03;35.54;100092.28;4507424;28;20038;-49
2023/12/28 03:22:14;;;;;;;1.05;0.70;;;;;;;21.02;35.66;100081.19;4522130;28;20077;-49
2023/12/28 03:24:24;;;;;;;0.73;0.73;;;;;;;21.02;36.38;100089.78;4506475;28;20038;-49
2023/12/28 03:26:40;;;;;;;0.88;0.65;;;;;;;21.02;35.65;100089.78;4506832;28;20038;-49
2023/12/28 03:28:51;;;;;;;0.60;0.60;;;;;;;21.02;36.05;100093.50;4489532;28;20042;-49
2023/12/28 03:31:03;;;;;;;0.93;0.70;;;;;;;21.02;35.64;100087.75;4494893;28;20038;-49
2023/12/28 03:33:13;;;;;;;0.80;0.60;;;;;;;21.01;35.57;100080.34;4505664;28;20060;-49
2023/12/28 03:35:23;;;;;;;0.68;0.68;;;;;;;21.01;35.57;100073.81;4505098;28;20045;-51
2023/12/28 03:37:34;;;;;;;1.70;0.75;;;;;;;21.01;35.94;100080.34;4505442;28;20034;-49
2023/12/28 03:39:45;;;;;;;0.70;0.68;;;;;;;21.02;36.03;100075.44;4505792;28;20136;-49
2023/12/28 03:41:56;;;;;;;0.95;0.70;;;;;;;20.99;35.66;100071.31;4505941;28;20038;-49
2023/12/28 03:44:06;;;;;;;0.60;0.60;;;;;;;21.01;35.83;100073.81;4505202;28;20058;-49
2023/12/28 03:46:16;;;;;;;0.70;0.70;;;;;;;21.01;35.83;100068.06;4507031;28;20038;-49
2023/12/28 03:48:27;;;;;;;0.68;0.60;;;;;;;21.00;35.84;100070.09;4521482;28;20506;-50
2023/12/28 03:50:37;;;;;;;1.27;0.60;;;;;;;21.01;35.84;100070.94;4506739;28;20045;-49
2023/12/28 03:52:48;;;;;;;0.80;0.60;;;;;;;21.01;35.43;100065.19;4506984;28;20537;-49
2023/12/28 03:54:58;;;;;;;0.90;0.70;;;;;;;20.99;35.84;100059.84;4506771;28;20042;-49
2023/12/28 03:57:08;;;;;;;1.15;1.00;;;;;;;21.00;35.29;100061.50;4504659;28;27046;-49
2023/12/28 03:59:19;;;;;;;0.80;0.60;;;;;;;21.01;35.65;100073.81;4505564;28;20038;-49
2023/12/28 04:01:29;;;;;;;0.80;0.60;;;;;;;21.01;35.36;100073.81;4505029;28;20042;-49
2023/12/28 04:03:40;;;;;;;0.73;0.70;;;;;;;21.00;35.60;100072.13;4505194;28;20590;-49
2023/12/28 04:05:50;;;;;;;1.00;0.90;;;;;;;21.00;35.57;100078.69;4505144;28;20049;-50
2023/12/28 04:08:01;;;;;;;0.80;0.80;;;;;;;20.99;35.61;100071.31;4505022;28;20553;-49
2023/12/28 04:10:13;;;;;;;0.80;0.70;;;;;;;21.00;35.40;100078.69;4506710;28;20081;-49
2023/12/28 04:12:23;;;;;;;0.90;0.80;;;;;;;20.99;35.54;100065.59;4506732;28;20477;-49
2023/12/28 04:14:35;;;;;;;1.08;0.93;;;;;;;21.01;35.68;100074.63;4504747;28;20069;-49
2023/12/28 04:16:45;;;;;;;0.88;0.80;;;;;;;20.99;35.46;100088.53;4504785;28;20604;-49
2023/12/28 04:18:56;;;;;;;0.80;0.80;;;;;;;20.99;35.11;100079.94;4505001;28;20029;-49
2023/12/28 04:21:11;;;;;;;0.80;0.60;;;;;;;21.00;35.53;100075.84;4506371;28;20137;-50
2023/12/28 04:23:21;;;;;;;0.80;0.60;;;;;;;21.00;34.98;100072.97;4502583;28;20654;-50
2023/12/28 04:25:32;;;;;;;0.60;0.50;;;;;;;21.00;35.19;100072.97;4506441;28;20112;-49
2023/12/28 04:27:43;;;;;;;0.52;0.52;;;;;;;21.00;34.86;100058.63;4504734;28;20030;-49
2023/12/28 04:29:53;;;;;;;0.70;0.70;;;;;;;20.99;35.35;100053.25;4504952;28;20081;-49
2023/12/28 04:32:04;;;;;;;0.50;0.50;;;;;;;21.00;34.98;100054.91;4504683;28;20482;-49
2023/12/28 04:34:14;;;;;;;0.60;0.60;;;;;;;20.99;34.98;100054.09;4504773;28;20034;-50
2023/12/28 04:36:25;;;;;;;1.23;0.60;;;;;;;21.00;35.12;100057.78;4504824;28;20050;-49
2023/12/28 04:38:36;;;;;;;0.88;0.60;;;;;;;21.00;35.33;100061.50;4503896;28;20513;-49
2023/12/28 04:40:47;;;;;;;0.63;0.63;;;;;;;20.99;34.97;100065.59;4505242;28;20042;-49
2023/12/28 04:42:57;;;;;;;0.50;0.50;;;;;;;20.99;35.25;100056.97;4500276;28;20029;-50
2023/12/28 04:45:08;;;;;;;0.80;0.77;;;;;;;20.99;34.80;100048.38;4504873;28;20038;-49
2023/12/28 04:47:18;;;;;;;1.13;0.70;;;;;;;20.99;35.24;100047.53;4507088;28;20029;-49
2023/12/28 04:49:29;;;;;;;0.85;0.60;;;;;;;20.98;34.78;100040.94;4502494;28;20042;-49
2023/12/28 04:51:44;;;;;;;1.02;0.70;;;;;;;20.98;34.94;100043.00;4507721;28;20079;-50
2023/12/28 04:53:54;;;;;;;0.60;0.60;;;;;;;20.98;34.88;100040.94;4524461;28;20781;-51
2023/12/28 04:56:05;;;;;;;0.65;0.65;;;;;;;20.98;34.67;100046.69;4509543;28;20177;-49
2023/12/28 04:58:15;;;;;;;1.10;0.70;;;;;;;20.99;34.94;100042.63;4507328;28;20037;-49
2023/12/28 05:00:26;;;;;;;0.77;0.60;;;;;;;20.98;34.53;100038.09;4507679;28;20045;-49
2023/12/28 05:02:36;;;;;;;0.50;0.50;;;;;;;20.99;35.04;100050.41;4507548;28;20053;-49
2023/12/28 05:04:47;;;;;;;0.60;0.60;;;;;;;20.98;35.08;100046.69;4524070;28;20045;-49
2023/12/28 05:06:57;;;;;;;0.77;0.47;;;;;;;20.98;34.96;100051.63;4509137;28;20037;-51
2023/12/28 05:09:08;;;;;;;0.60;0.60;;;;;;;20.98;34.71;100051.63;4507451;28;20038;-49
2023/12/28 05:11:18;;;;;;;0.65;0.63;;;;;;;20.99;35.00;100054.09;4507593;28;20034;-49
2023/12/28 05:13:29;;;;;;;0.40;0.40;;;;;;;20.99;34.53;100064.75;4507404;28;20061;-49
2023/12/28 05:15:39;;;;;;;0.52;0.50;;;;;;;20.98;34.96;100060.22;4507174;28;20415;-50
2023/12/28 05:17:50;;;;;;;0.60;0.50;;;;;;;20.98;34.47;100063.91;4509034;28;20076;-50
2023/12/28 05:20:00;;;;;;;0.50;0.50;;;;;;;20.95;34.90;100058.91;4509051;28;20072;-49
2023/12/28 05:22:12;;;;;;;0.60;0.50;;;;;;;20.98;34.81;100071.69;4509284;28;20037;-49
2023/12/28 05:24:22;;;;;;;0.50;0.50;;;;;;;20.98;34.58;100081.13;4508665;28;20064;-49
2023/12/28 05:26:33;;;;;;;0.50;0.50;;;;;;;20.96;34.71;100080.69;4509078;28;20041;-49
2023/12/28 05:28:43;;;;;;;0.55;0.52;;;;;;;20.97;34.86;100085.22;4508456;28;20084;-49
2023/12/28 05:30:53;;;;;;;0.90;0.90;;;;;;;20.98;34.67;100089.72;4509095;28;20088;-49
2023/12/28 05:33:04;;;;;;;0.60;0.52;;;;;;;20.97;34.95;100085.22;4509092;28;20080;-50
2023/12/28 05:35:15;;;;;;;0.80;0.52;;;;;;;20.97;34.95;100090.94;4508957;28;20049;-50
2023/12/28 05:37:25;;;;;;;0.50;0.50;;;;;;;20.97;34.92;100096.69;4508765;28;20080;-50
2023/12/28 05:39:35;;;;;;;0.40;0.40;;;;;;;20.98;34.63;100103.25;4508652;28;20034;-50
2023/12/28 05:41:47;;;;;;;0.63;0.60;;;;;;;20.98;34.98;100103.25;4509029;28;20484;-50
2023/12/28 05:43:57;;;;;;;0.75;0.50;;;;;;;20.97;34.86;100102.41;4508497;28;21133;-49
2023/12/28 05:46:08;;;;;;;0.52;0.50;;;;;;;20.97;35.50;100107.31;4508778;28;20049;-49
2023/12/28 05:48:18;;;;;;;0.68;0.60;;;;;;;20.97;35.12;100113.06;4508919;28;20141;-50
2023/12/28 05:50:29;;;;;;;0.52;0.50;;;;;;;20.97;34.68;100125.38;4508247;28;20038;-49
2023/12/28 05:52:39;;;;;;;0.50;0.50;;;;;;;20.97;35.10;100124.53;4508907;28;20511;-49
2023/12/28 05:54:49;;;;;;;0.50;0.50;;;;;;;20.97;35.21;100130.28;4508644;28;20161;-50
2023/12/28 05:57:00;;;;;;;0.50;0.50;;;;;;;20.97;34.88;100136.84;4507935;28;20022;-50
2023/12/28 05:59:10;;;;;;;0.60;0.60;;;;;;;20.97;34.80;100131.13;4508598;28;20057;-49
2023/12/28 06:01:20;;;;;;;1.20;0.70;;;;;;;20.96;35.03;100129.47;4508438;28;20034;-49
2023/12/28 06:03:31;;;;;;;0.50;0.50;;;;;;;20.95;35.11;100130.63;4508236;28;20092;-49
2023/12/28 06:05:41;;;;;;;0.55;0.55;;;;;;;20.96;34.75;100123.72;4508577;28;20037;-49
2023/12/28 06:07:52;;;;;;;0.73;0.60;;;;;;;20.96;34.99;100111.38;4508367;28;20081;-49
2023/12/28 06:10:02;;;;;;;0.70;0.70;;;;;;;20.96;34.70;100118.00;4507939;28;20042;-49
2023/12/28 06:12:13;;;;;;;0.50;0.50;;;;;;;20.96;34.70;100112.25;4508395;28;20033;-49
2023/12/28 06:14:23;;;;;;;0.90;0.55;;;;;;;20.96;34.61;100111.38;4507951;28;20077;-51
2023/12/28 06:16:34;;;;;;;0.50;0.50;;;;;;;20.97;34.67;100115.94;4508055;28;21076;-50
2023/12/28 06:18:44;;;;;;;0.70;0.70;;;;;;;20.96;34.58;100128.59;4508074;28;20192;-49
2023/12/28 06:20:55;;;;;;;0.85;0.73;;;;;;;20.97;34.43;100122.50;4508085;28;20065;-49
2023/12/28 06:23:06;;;;;;;0.77;0.50;;;;;;;20.96;34.50;100118.00;4508183;28;20109;-49
2023/12/28 06:25:17;;;;;;;0.82;0.82;;;;;;;20.96;34.61;100131.47;4507956;28;20835;-49
2023/12/28 06:27:27;;;;;;;1.13;1.00;;;;;;;20.97;34.79;100139.72;4508036;28;20060;-49
2023/12/28 06:29:38;;;;;;;2.03;1.52;;;;;;;20.96;34.67;100131.47;4508021;28;20049;-49
2023/12/28 06:31:48;;;;;;;1.25;1.13;;;;;;;20.96;34.88;100138.06;4507971;28;20045;-49
2023/12/28 06:33:58;;;;;;;3.03;2.35;;;;;;;20.97;34.59;100136.84;4507733;28;20045;-49
2023/12/28 06:36:09;;;;;;;1.95;0.93;;;;;;;20.97;34.42;100133.13;4508102;28;20033;-50
2023/12/28 06:38:20;;;;;;;1.38;1.20;;;;;;;20.96;34.13;100140.06;4507339;28;20049;-49
2023/12/28 06:40:30;;;;;;;1.48;1.02;;;;;;;20.96;34.58;100146.69;4507848;28;20070;-49
2023/12/28 06:42:43;;;;;;;1.67;1.40;;;;;;;20.97;34.46;100153.22;4507710;28;20541;-49
2023/12/28 06:44:53;;;;;;;0.80;0.77;;;;;;;20.97;33.99;100153.22;4507734;28;20038;-49
2023/12/28 06:47:03;;;;;;;1.52;1.10;;;;;;;20.95;34.42;100150.72;4507799;28;20050;-49
2023/12/28 06:49:15;;;;;;;0.93;0.80;;;;;;;20.97;34.11;100147.50;4507727;28;20125;-50
2023/12/28 06:51:26;;;;;;;2.33;1.90;;;;;;;20.97;34.38;100158.97;4507435;28;20041;-49
2023/12/28 06:53:36;;;;;;;1.48;1.30;;;;;;;20.98;33.91;100160.66;4507711;28;20030;-49
2023/12/28 06:55:47;;;;;;;1.10;1.00;;;;;;;20.98;34.34;100161.44;4507589;28;20054;-50
2023/12/28 06:57:57;;;;;;;1.48;1.20;;;;;;;20.98;34.39;100158.59;4507691;28;20049;-50
2023/12/28 07:00:08;;;;;;;1.50;1.08;;;;;;;20.99;33.86;100150.81;4506883;28;20753;-49
2023/12/28 07:02:18;;;;;;;1.98;1.73;;;;;;;20.99;33.97;100156.56;4507690;28;20030;-50
2023/12/28 07:04:29;;;;;;;1.15;0.90;;;;;;;20.99;34.06;100147.94;4505990;28;20038;-49
2023/12/28 07:06:39;;;;;;;2.08;1.88;;;;;;;20.97;34.05;100156.09;4507609;28;20038;-50
2023/12/28 07:08:50;;;;;;;1.38;1.25;;;;;;;20.99;34.17;100150.81;4521356;28;20552;-50
2023/12/28 07:11:00;;;;;;;1.60;1.30;;;;;;;20.98;33.70;100152.84;4507503;28;20518;-50
2023/12/28 07:13:11;;;;;;;0.90;0.90;;;;;;;20.99;33.80;100145.91;4506346;28;20125;-50
2023/12/28 07:15:21;;;;;;;1.33;1.00;;;;;;;20.96;34.04;100143.81;4507180;28;20181;-49
2023/12/28 07:17:31;;;;;;;1.17;1.08;;;;;;;20.98;33.87;100160.66;4507491;28;20037;-49
2023/12/28 07:19:42;;;;;;;0.98;0.73;;;;;;;20.98;34.25;100160.66;4507729;28;20018;-49
2023/12/28 07:21:52;;;;;;;1.70;1.35;;;;;;;20.98;33.79;100164.31;4507144;28;20065;-50
2023/12/28 07:24:03;;;;;;;1.20;1.10;;;;;;;20.98;33.57;100164.31;4506786;28;20033;-50
2023/12/28 07:26:13;;;;;;;0.85;0.85;;;;;;;20.98;33.73;100164.31;4507160;28;20041;-50
2023/12/28 07:28:24;;;;;;;0.90;0.70;;;;;;;20.98;33.88;100166.38;4507206;28;20096;-49
2023/12/28 07:30:34;;;;;;;0.90;0.80;;;;;;;20.98;33.57;100166.38;4505717;28;20034;-50
2023/12/28 07:32:47;;;;;;;0.77;0.77;;;;;;;20.96;33.96;100158.16;4507289;28;20954;-50
2023/12/28 07:34:58;;;;;;;0.57;0.57;;;;;;;20.97;33.75;100159.81;4506559;28;20609;-49
2023/12/28 07:37:09;;;;;;;1.23;1.00;;;;;;;20.94;33.63;100160.53;4507041;28;20026;-50
2023/12/28 07:39:19;;;;;;;0.82;0.82;;;;;;;20.97;33.65;100164.69;4495896;28;20038;-49
2023/12/28 07:41:30;;;;;;;1.38;0.95;;;;;;;20.98;33.87;100166.38;4507270;28;20053;-48
2023/12/28 07:43:40;;;;;;;0.85;0.70;;;;;;;20.97;33.68;100165.53;4506991;28;20399;-49
2023/12/28 07:45:50;;;;;;;0.80;0.70;;;;;;;20.98;33.65;100175.78;4506460;28;20126;-50
2023/12/28 07:48:01;;;;;;;1.08;0.80;;;;;;;20.97;33.54;100171.28;4504615;28;20128;-49
2023/12/28 07:50:11;;;;;;;0.82;0.80;;;;;;;20.97;33.58;100174.16;4507091;28;20471;-49
2023/12/28 07:52:22;;;;;;;0.82;0.80;;;;;;;20.97;33.30;100182.75;4505058;28;20414;-49
2023/12/28 07:54:32;;;;;;;0.85;0.75;;;;;;;20.97;33.40;100190.53;4506906;28;20384;-49
2023/12/28 07:56:42;;;;;;;1.60;0.80;;;;;;;20.98;33.38;100190.16;4506578;28;20127;-51
2023/12/28 07:58:53;;;;;;;1.08;1.00;;;;;;;20.99;33.45;100197.56;4506883;28;20038;-50
2023/12/28 08:01:04;;;;;;;1.20;0.70;;;;;;;20.97;33.18;100205.72;4506797;28;20136;-49
2023/12/28 08:03:17;;;;;;;1.00;0.70;;;;;;;20.98;33.18;100201.63;4506752;28;20049;-49
2023/12/28 08:05:28;;;;;;;0.82;0.68;;;;;;;20.97;33.09;100193.41;4506486;28;20034;-49
2023/12/28 08:07:38;;;;;;;0.70;0.70;;;;;;;20.98;33.28;100201.63;4504740;28;20033;-50
2023/12/28 08:09:48;;;;;;;1.08;0.98;;;;;;;20.98;33.29;100207.34;4504972;28;20474;-49
2023/12/28 08:11:59;;;;;;;0.60;0.60;;;;;;;20.98;33.39;100215.97;4506680;28;20109;-49
2023/12/28 08:14:09;;;;;;;0.80;0.80;;;;;;;20.98;33.56;100218.03;4506482;28;20042;-50
2023/12/28 08:16:20;;;;;;;1.30;0.80;;;;;;;20.99;33.31;100219.69;4505046;28;20554;-50
2023/12/28 08:18:30;;;;;;;1.00;0.70;;;;;;;20.99;33.24;100220.50;4506020;28;20033;-50
2023/12/28 08:20:41;;;;;;;0.85;0.68;;;;;;;20.99;33.05;100220.50;4506361;28;20038;-50
2023/12/28 08:22:51;;;;;;;1.00;0.80;;;;;;;20.98;33.73;100213.09;4506628;28;20042;-49
2023/12/28 08:25:02;;;;;;;0.93;0.70;;;;;;;20.99;33.57;100219.69;4506009;28;21592;-50
2023/12/28 08:27:12;;;;;;;0.77;0.77;;;;;;;21.00;33.56;100218.44;4506135;28;20049;-49
2023/12/28 08:29:22;;;;;;;1.30;1.00;;;;;;;20.99;33.62;100220.50;4506745;28;20125;-49
2023/12/28 08:31:33;;;;;;;0.73;0.73;;;;;;;21.00;33.31;100225.03;4506448;28;20037;-49
2023/12/28 08:33:43;;;;;;;0.70;0.70;;;;;;;21.00;33.69;100222.16;4506460;28;20026;-49
2023/12/28 08:35:54;;;;;;;0.88;0.80;;;;;;;21.01;33.36;100220.13;4506499;28;20042;-49
2023/12/28 08:38:05;;;;;;;0.70;0.70;;;;;;;21.01;33.54;100223.00;4506351;28;20442;-51
2023/12/28 08:40:16;;;;;;;1.17;0.88;;;;;;;21.00;33.56;100225.03;4506340;28;20136;-49
2023/12/28 08:42:26;;;;;;;1.23;0.70;;;;;;;21.01;33.55;100229.53;4506612;28;20454;-50
2023/12/28 08:44:37;;;;;;;0.85;0.70;;;;;;;21.03;33.47;100227.13;4506341;28;20038;-49
2023/12/28 08:46:47;;;;;;;1.05;0.70;;;;;;;21.03;33.33;100221.41;4506468;28;20116;-49
2023/12/28 08:48:58;;;;;;;1.00;0.70;;;;;;;21.02;33.47;100219.75;4506322;28;20076;-48
2023/12/28 08:51:14;;;;;;;1.75;0.77;;;;;;;21.02;33.67;100221.78;4506609;28;20108;-50
2023/12/28 08:53:24;;;;;;;1.67;0.80;;;;;;;21.03;33.34;100221.41;4501142;28;20195;-50
2023/12/28 08:55:34;;;;;;;0.70;0.70;;;;;;;21.01;33.37;100223.81;4506166;28;20088;-50
2023/12/28 08:57:45;;;;;;;0.90;0.70;;;;;;;20.99;33.78;100229.13;4505653;28;20045;-49
2023/12/28 08:59:55;;;;;;;1.25;0.70;;;;;;;20.98;33.56;100221.69;4505537;28;20113;-49
2023/12/28 09:02:07;;;;;;;1.45;0.68;;;;;;;20.98;33.61;100230.31;4504746;28;20077;-50
2023/12/28 09:04:18;;;;;;;0.82;0.60;;;;;;;20.99;33.84;100229.13;4506153;28;20141;-49
2023/12/28 09:06:28;;;;;;;0.70;0.70;;;;;;;20.99;33.63;100240.59;4504587;28;20042;-49
2023/12/28 09:08:42;;;;;;;0.60;0.60;;;;;;;20.98;33.70;100241.78;4505766;28;20042;-50
2023/12/28 09:10:53;;;;;;;1.00;0.70;;;;;;;20.98;34.02;100238.91;4505956;28;20765;-49
2023/12/28 09:13:05;;;;;;;0.70;0.70;;;;;;;20.99;33.75;100242.63;4502382;28;20037;-53
2023/12/28 09:15:16;;;;;;;1.10;0.80;;;;;;;21.00;33.66;100250.00;4505416;28;20156;-49
2023/12/28 09:17:26;;;;;;;0.80;0.60;;;;;;;21.01;34.00;100245.97;4504393;28;20442;-49
2023/12/28 09:19:37;;;;;;;1.05;0.80;;;;;;;21.04;33.42;100250.94;4505814;28;20491;-49
2023/12/28 09:21:47;;;;;;;0.77;0.73;;;;;;;21.04;33.78;100242.31;4505927;28;20068;-50
2023/12/28 09:23:57;;;;;;;1.58;0.80;;;;;;;21.04;33.54;100254.63;4504325;28;20045;-53
2023/12/28 09:26:08;;;;;;;1.10;0.70;;;;;;;21.05;33.87;100244.81;4503772;28;20030;-51
2023/12/28 09:28:18;;;;;;;1.05;0.80;;;;;;;21.06;33.66;100263.69;4505659;28;20044;-50
2023/12/28 09:30:29;;;;;;;1.25;0.60;;;;;;;21.07;33.43;100256.75;4503848;28;20034;-49
2023/12/28 09:32:39;;;;;;;0.70;0.68;;;;;;;21.07;33.75;100262.50;4507631;28;20145;-50
2023/12/28 09:34:50;;;;;;;1.00;0.70;;;;;;;21.07;33.34;100251.00;4508489;28;20041;-49
2023/12/28 09:37:00;;;;;;;1.27;0.70;;;;;;;21.08;33.62;100254.69;4508652;28;20042;-50
2023/12/28 09:39:11;;;;;;;1.73;0.70;;;;;;;21.06;33.50;100257.94;4508745;28;20564;-50
2023/12/28 09:41:26;;;;;;;1.20;0.80;;;;;;;21.08;33.51;100246.94;4508470;28;20061;-51
2023/12/28 09:43:45;;;;;;;1.38;0.90;;;;;;;21.07;33.78;100251.00;4508545;28;20033;-49
2023/12/28 09:45:56;;;;;;;0.75;0.60;;;;;;;21.08;33.79;100260.44;4508552;28;20029;-49
2023/12/28 09:48:06;;;;;;;0.75;0.60;;;;;;;21.09;33.72;100257.19;4508475;28;20034;-49
2023/12/28 09:50:18;;;;;;;1.05;0.70;;;;;;;21.10;33.79;100267.47;4508574;28;20042;-49
2023/12/28 09:52:29;;;;;;;1.40;0.90;;;;;;;21.10;33.82;100256.00;4506939;28;20030;-49
2023/12/28 09:54:39;;;;;;;0.95;0.70;;;;;;;21.11;33.55;100260.50;4508383;28;20037;-49
2023/12/28 09:56:50;;;;;;;1.30;0.70;;;;;;;21.11;33.86;100256.81;4507983;28;20034;-49
2023/12/28 09:59:04;;;;;;;0.68;0.60;;;;;;;21.11;33.49;100257.66;4507239;28;20037;-50
2023/12/28 10:01:14;;;;;;;1.00;0.90;;;;;;;21.10;33.90;100250.25;4508385;28;20038;-49
2023/12/28 10:03:25;;;;;;;1.27;0.70;;;;;;;21.10;34.02;100250.25;4508264;28;20029;-49
2023/12/28 10:05:35;;;;;;;0.80;0.70;;;;;;;21.11;33.93;100237.56;4508313;28;20557;-49
2023/12/28 10:07:47;;;;;;;0.95;0.70;;;;;;;21.11;33.61;100239.59;4507879;28;20045;-49
2023/12/28 10:09:57;;;;;;;1.08;0.70;;;;;;;21.10;33.69;100243.69;4508452;28;20121;-49